Tularosa, New Mexico
Current Conditions -  °F | °C
As of 2:58 PM on Friday 24 Oct 2014 (Local Time) from KHMN Reporting Station
Clear Clear  
Wind Chill: 80°   Ceiling: Unl
Heat Index: 80°   Visibility: 10mi
Dew Point: 48°   Wind: 3mph
Humidity: 33%   Direction: NA
Pressure: 30.17"   Gusts: NA
Location:  33.07°N, 106.02°W
Report Text: KHMN 242058Z AUTO VRB03KT 10SM CLR 26/09 A3017 RMK AO2 SLP162 T02640089 57026 $
Loading
Personal Weather Stations






























Interactive Weather Map
Tropical Storm Tracking
New forecast layout! Learn more

10-Day Weather Forecast

Advertisements
Track Severe Weather on mobile